Sioux Lookout Airport
CYXL : now visible

Airfield :











YOU CAN JOIN US ON...

 
LOGIN :

Register | Disclaimer

   EN    FR    IT 

 









Legend :    VFR   Marginal VFR   IFR   Intensive IFR   Very Intensive IFR
Visi :
Ceiling :
>= 8 km
>= 3000ft
5 to 8 km
1000 to 3000 ft
1500m to 5 km
500 to 1000 ft
800 to 1500m
200 to 500 ft
< 800m
< 200 ft
Symbols :   Thunderstorms  Fog  Heavy snow  Heavy precipitations  Wind > 20 kt






- Airport Elevation : 1258 ft
- IATA code : YXL


CYXL - Sioux Lookout

CURRENT METAR :
  • 072100Z 19010G15KT 15SM SCT055 SCT230 28/17 A2987 RMK CU3CI1 SLP115 DENSITY ALT 3100FT

EXPIRED METARs :
  • 072000Z 19009KT 15SM BKN045 BKN210 27/17 A2988 RMK CU5CI2 SLP121 DENSITY ALT 3000FT
  • 071900Z 16009G17KT 120V210 15SM BKN045 BKN210 26/17 A2990 RMK CU5CI2 SLP127 DENSITY ALT 2800FT

TAF TAF CYXL
Valid from the 07 at 20:00 until the 08 at 08:00 UTC


071938Z 0720/0808 17010G20KT P6SM SCT030 BKN070
TEMPO 0720/0801 BKN030
FM080100 20008KT P6SM BKN030
TEMPO 0801/0804 BKN020
FM080400 19005KT P6SM FEW008 BKN020
PROB30 0804/0806 2SM TSRA BR OVC015CB RMK NXT FCST BY 080200Z
CZWG FIR / North America



MET'MAP, your aeronautical weather chart ! - Copyright ORBIFLY December 2007 - Disclaimer

ORBIFLY MET'MAP TEAM :

Programming & Development : Alexandra Zaïnal
Concept & original design : Baudouin d'Aumeries
Assistance for programming : Marc-Olivier Méhu
Technical & hardware support : Manuel Goepfert

Contact : metmap@orbifly.com




SOURCES & CREDITS :

   NOAA       Earth
Advisory